createdAt,value
2018-03-16T00:00:32.550Z,28.25
2018-03-16T00:03:00.831Z,30.98
2018-03-16T00:05:29.081Z,27.55
2018-03-16T00:07:58.096Z,29.60
2018-03-16T00:10:26.339Z,29.27
2018-03-16T00:12:55.367Z,32.72
2018-03-16T00:15:23.623Z,28.55
2018-03-16T00:17:52.616Z,27.60
2018-03-16T00:20:21.632Z,27.90
2018-03-16T00:22:49.870Z,26.33
2018-03-16T00:25:18.871Z,29.10
2018-03-16T00:27:47.897Z,26.40
2018-03-16T00:30:16.175Z,26.48
2018-03-16T00:32:44.444Z,25.52
2018-03-16T00:35:12.766Z,25.05
2018-03-16T00:37:41.015Z,26.15
2018-03-16T00:40:09.290Z,27.55
2018-03-16T00:42:37.527Z,28.70
2018-03-16T00:45:06.523Z,35.03
2018-03-16T00:47:35.532Z,28.23
2018-03-16T00:50:03.757Z,27.00
2018-03-16T00:52:32.003Z,26.00
2018-03-16T00:55:00.226Z,27.37
2018-03-16T00:57:28.467Z,26.48
2018-03-16T00:59:56.723Z,25.70
2018-03-16T01:02:24.973Z,26.08
2018-03-16T01:04:53.996Z,27.02
2018-03-16T01:07:22.212Z,28.45
2018-03-16T01:09:50.467Z,25.50
2018-03-16T01:12:18.779Z,24.40
2018-03-16T01:14:47.099Z,27.92
2018-03-16T01:17:15.346Z,25.10
2018-03-16T01:19:44.334Z,23.45
2018-03-16T01:22:13.369Z,23.25
2018-03-16T01:24:41.628Z,23.90
2018-03-16T01:27:09.854Z,23.30
2018-03-16T01:29:38.092Z,22.40
2018-03-16T01:32:06.352Z,22.05
2018-03-16T01:34:35.361Z,19.33
2018-03-16T01:37:03.610Z,21.00
2018-03-16T01:39:32.639Z,19.37
2018-03-16T01:42:00.867Z,21.33
2018-03-16T01:44:29.124Z,18.25
2018-03-16T01:46:57.342Z,17.77
2018-03-16T01:49:25.570Z,18.02
2018-03-16T01:51:53.811Z,19.20
2018-03-16T01:54:22.033Z,16.70
2018-03-16T01:56:50.290Z,17.58
2018-03-16T01:59:18.632Z,17.33
2018-03-16T02:01:46.851Z,14.98
2018-03-16T02:04:15.083Z,14.73
2018-03-16T02:06:43.326Z,16.02
2018-03-16T02:09:11.556Z,15.27
2018-03-16T02:11:39.817Z,15.25
2018-03-16T02:14:08.061Z,15.02
2018-03-16T02:16:36.272Z,15.20
2018-03-16T02:19:04.530Z,14.23
2018-03-16T02:21:33.508Z,14.10
2018-03-16T02:24:02.518Z,13.05
2018-03-16T02:26:30.744Z,15.32
2018-03-16T02:28:58.983Z,13.60
2018-03-16T02:31:27.220Z,14.43
2018-03-16T02:33:55.460Z,13.50
2018-03-16T02:36:23.706Z,13.23
2018-03-16T02:38:51.940Z,16.60
2018-03-16T02:41:20.261Z,14.95
2018-03-16T02:43:48.495Z,13.98
2018-03-16T02:46:16.742Z,16.50
2018-03-16T02:48:45.056Z,15.30
2018-03-16T02:51:13.285Z,15.57
2018-03-16T02:53:41.537Z,14.68
2018-03-16T02:56:09.773Z,16.02
2018-03-16T02:58:38.059Z,15.73
2018-03-16T03:01:06.275Z,17.87
2018-03-16T03:03:34.494Z,17.00
2018-03-16T03:06:02.823Z,15.90
2018-03-16T03:08:31.112Z,16.80
2018-03-16T03:10:59.358Z,16.40
2018-03-16T03:13:28.374Z,16.58
2018-03-16T03:15:56.644Z,18.87
2018-03-16T03:18:24.861Z,16.55
2018-03-16T03:20:53.096Z,18.25
2018-03-16T03:23:21.345Z,16.95
2018-03-16T03:25:50.356Z,17.42
2018-03-16T03:28:19.369Z,16.10
2018-03-16T03:30:47.595Z,16.58
2018-03-16T03:33:15.830Z,16.70
2018-03-16T03:35:44.087Z,17.77
2018-03-16T03:38:12.340Z,16.98
2018-03-16T03:40:40.566Z,18.48
2018-03-16T03:43:08.797Z,18.00
2018-03-16T03:45:37.891Z,16.90
2018-03-16T03:48:06.885Z,17.05
2018-03-16T03:50:35.898Z,17.15
2018-03-16T03:53:04.184Z,17.13
2018-03-16T03:55:32.412Z,17.50
2018-03-16T03:58:00.648Z,16.48
2018-03-16T04:00:28.868Z,18.23
2018-03-16T04:02:57.192Z,18.95
2018-03-16T04:05:25.406Z,17.15
2018-03-16T04:07:53.654Z,17.20
2018-03-16T04:10:21.898Z,17.27
2018-03-16T04:12:50.125Z,18.23
2018-03-16T04:15:18.378Z,18.27
2018-03-16T04:17:46.630Z,17.90
2018-03-16T04:20:14.871Z,16.73
2018-03-16T04:22:43.103Z,16.62
2018-03-16T04:25:11.349Z,17.30
2018-03-16T04:27:40.344Z,18.57
2018-03-16T04:30:08.599Z,18.60
2018-03-16T04:32:36.829Z,19.90
2018-03-16T04:35:05.071Z,16.58
2018-03-16T04:37:33.390Z,19.03
2018-03-16T04:40:01.604Z,17.00
2018-03-16T04:42:29.869Z,16.87
2018-03-16T04:44:58.083Z,16.50
2018-03-16T04:47:26.321Z,19.77
2018-03-16T04:49:54.545Z,16.17
2018-03-16T04:52:22.787Z,16.87
2018-03-16T04:54:51.103Z,16.23
2018-03-16T04:57:19.354Z,16.30
2018-03-16T04:59:48.353Z,18.85
2018-03-16T05:02:16.639Z,15.05
2018-03-16T05:04:44.863Z,16.40
2018-03-16T05:07:13.098Z,17.13
2018-03-16T05:09:41.313Z,16.25
2018-03-16T05:12:09.566Z,17.00
2018-03-16T05:14:37.820Z,14.43
2018-03-16T05:17:06.102Z,15.95
2018-03-16T05:19:34.346Z,17.90
2018-03-16T05:22:03.381Z,15.95
2018-03-16T05:24:31.638Z,18.25
2018-03-16T05:26:59.872Z,15.90
2018-03-16T05:29:28.127Z,17.50
2018-03-16T05:31:56.350Z,15.82
2018-03-16T05:34:25.359Z,14.93
2018-03-16T05:36:53.610Z,16.87
2018-03-16T05:39:22.597Z,16.27
2018-03-16T05:41:50.859Z,16.77
2018-03-16T05:44:19.074Z,16.95
2018-03-16T05:46:47.314Z,16.95
2018-03-16T05:49:15.641Z,16.10
2018-03-16T05:51:43.882Z,16.52
2018-03-16T05:54:12.154Z,14.98
2018-03-16T05:56:40.447Z,14.93
2018-03-16T05:59:08.650Z,14.50
2018-03-16T06:01:36.893Z,16.02
2018-03-16T06:04:05.897Z,15.90
2018-03-16T06:06:35.008Z,17.10
2018-03-16T06:09:03.234Z,16.60
2018-03-16T06:11:31.512Z,14.60
2018-03-16T06:13:59.699Z,14.85
2018-03-16T06:16:28.806Z,15.52
2018-03-16T06:18:56.999Z,15.10
2018-03-16T06:21:25.247Z,14.80
2018-03-16T06:23:53.476Z,14.57
2018-03-16T06:26:21.730Z,16.08
2018-03-16T06:28:49.991Z,14.13
2018-03-16T06:31:18.975Z,15.00
2018-03-16T06:33:47.997Z,14.95
2018-03-16T06:36:16.275Z,14.37
2018-03-16T06:38:44.486Z,12.88
2018-03-16T06:41:12.727Z,13.45
2018-03-16T06:43:40.955Z,16.95
2018-03-16T06:46:09.201Z,14.43
2018-03-16T06:48:37.480Z,12.82
2018-03-16T06:51:05.704Z,13.13
2018-03-16T06:53:34.693Z,14.73
2018-03-16T06:56:03.693Z,14.48
2018-03-16T06:58:32.682Z,12.82
2018-03-16T07:01:01.685Z,12.32
2018-03-16T07:03:30.667Z,11.98
2018-03-16T07:05:58.939Z,12.85
2018-03-16T07:08:27.166Z,10.85
2018-03-16T07:10:56.225Z,11.70
2018-03-16T07:13:25.211Z,10.40
2018-03-16T07:15:54.242Z,13.48
2018-03-16T07:18:22.512Z,12.00
2018-03-16T07:20:50.753Z,12.63
2018-03-16T07:23:18.992Z,10.93
2018-03-16T07:25:47.347Z,10.30
2018-03-16T07:28:15.575Z,10.45
2018-03-16T07:30:43.805Z,13.48
2018-03-16T07:33:12.067Z,10.98
2018-03-16T07:35:40.343Z,11.40
2018-03-16T07:38:08.622Z,12.23
2018-03-16T07:40:36.931Z,10.82
2018-03-16T07:43:05.174Z,10.88
2018-03-16T07:45:39.126Z,10.65
2018-03-16T07:48:07.373Z,12.40
2018-03-16T07:50:35.657Z,10.65
2018-03-16T07:53:03.878Z,10.50
2018-03-16T07:55:32.224Z,10.52
2018-03-16T07:58:00.570Z,10.40
2018-03-16T08:00:28.861Z,10.05
2018-03-16T08:02:57.069Z,9.73
2018-03-16T08:05:25.325Z,11.73
2018-03-16T08:07:53.579Z,11.82
2018-03-16T08:10:21.810Z,13.40
2018-03-16T08:12:50.049Z,10.88
2018-03-16T08:15:18.328Z,12.47
2018-03-16T08:17:46.540Z,9.90
2018-03-16T08:20:14.788Z,10.43
2018-03-16T08:22:43.076Z,9.68
2018-03-16T08:25:11.327Z,9.60
2018-03-16T08:27:39.552Z,11.48
2018-03-16T08:30:07.958Z,10.40
2018-03-16T08:32:36.248Z,9.23
2018-03-16T08:35:04.492Z,9.30
2018-03-16T08:37:33.472Z,11.02
2018-03-16T08:40:01.751Z,11.95
2018-03-16T08:42:29.996Z,11.27
2018-03-16T08:44:58.406Z,10.52
2018-03-16T08:47:26.665Z,10.77
2018-03-16T08:49:54.879Z,10.70
2018-03-16T08:52:23.924Z,10.80
2018-03-16T08:54:52.161Z,9.63
2018-03-16T08:57:21.136Z,9.90
2018-03-16T08:59:49.366Z,8.57
2018-03-16T09:02:17.584Z,9.38
2018-03-16T09:04:46.581Z,9.35
2018-03-16T09:07:15.598Z,9.13
2018-03-16T09:09:43.836Z,9.23
2018-03-16T09:12:12.843Z,8.73
2018-03-16T09:14:41.864Z,9.13
2018-03-16T09:17:10.092Z,8.13
2018-03-16T09:19:38.325Z,14.80
2018-03-16T09:22:06.571Z,8.98
2018-03-16T09:24:35.571Z,8.38
2018-03-16T09:27:03.795Z,10.98
2018-03-16T09:29:32.021Z,9.57
2018-03-16T09:32:00.306Z,13.02
2018-03-16T09:34:28.550Z,9.52
2018-03-16T09:36:56.831Z,9.52
2018-03-16T09:39:25.068Z,10.55
2018-03-16T09:41:53.316Z,8.50
2018-03-16T09:44:21.554Z,9.73
2018-03-16T09:46:49.784Z,9.50
2018-03-16T09:49:18.037Z,8.98
2018-03-16T09:51:46.260Z,9.57
2018-03-16T09:54:14.496Z,8.57
2018-03-16T09:56:42.746Z,8.00
2018-03-16T09:59:11.779Z,9.32
2018-03-16T10:01:40.029Z,8.88
2018-03-16T10:04:09.031Z,8.30
2018-03-16T10:06:37.408Z,8.70
2018-03-16T10:09:05.593Z,7.95
2018-03-16T10:11:33.827Z,9.82
2018-03-16T10:14:02.845Z,10.93
2018-03-16T10:16:31.824Z,8.10
2018-03-16T10:19:00.052Z,12.60
2018-03-16T10:21:28.289Z,10.68
2018-03-16T10:23:57.285Z,9.50
2018-03-16T10:26:25.535Z,10.70
2018-03-16T10:28:53.758Z,9.20
2018-03-16T10:31:22.002Z,9.65
2018-03-16T10:33:50.984Z,9.60
2018-03-16T10:36:19.227Z,11.40
2018-03-16T10:38:47.486Z,9.95
2018-03-16T10:41:15.732Z,9.00
2018-03-16T10:43:44.723Z,10.30
2018-03-16T10:46:13.727Z,7.68
2018-03-16T10:48:42.014Z,9.43
2018-03-16T10:51:10.250Z,8.93
2018-03-16T10:53:38.468Z,9.20
2018-03-16T10:56:06.718Z,8.20
2018-03-16T10:58:35.710Z,12.15
2018-03-16T11:01:10.532Z,10.18
2018-03-16T11:03:45.417Z,9.48
2018-03-16T11:09:21.862Z,9.00
2018-03-16T11:11:50.017Z,10.00
2018-03-16T11:14:18.269Z,12.13
2018-03-16T11:16:46.513Z,15.77
2018-03-16T11:19:14.762Z,12.37
2018-03-16T11:21:43.758Z,10.45
2018-03-16T11:24:12.774Z,13.20
2018-03-16T11:26:40.995Z,14.23
2018-03-16T11:29:09.297Z,12.77
2018-03-16T11:31:37.486Z,14.45
2018-03-16T11:34:05.737Z,13.10
2018-03-16T11:36:34.744Z,11.65
2018-03-16T11:39:03.764Z,11.32
2018-03-16T11:41:31.990Z,15.60
2018-03-16T11:44:00.250Z,11.65
2018-03-16T11:46:28.448Z,13.07
2018-03-16T11:48:56.692Z,12.45
2018-03-16T11:51:24.928Z,12.63
2018-03-16T11:53:53.944Z,16.30
2018-03-16T11:56:22.145Z,11.57
2018-03-16T11:58:50.369Z,12.65
2018-03-16T12:01:19.383Z,13.82
2018-03-16T12:03:47.655Z,14.02
2018-03-16T12:06:15.906Z,13.40
2018-03-16T12:08:45.018Z,12.13
2018-03-16T12:11:13.272Z,12.77
2018-03-16T12:13:42.287Z,10.88
2018-03-16T12:16:10.566Z,14.43
2018-03-16T12:18:38.782Z,12.80
2018-03-16T12:21:07.037Z,10.73
2018-03-16T12:23:35.265Z,12.30
2018-03-16T12:26:03.512Z,10.57
2018-03-16T12:28:49.374Z,10.98
2018-03-16T12:31:00.753Z,11.20
2018-03-16T12:33:29.007Z,11.32
2018-03-16T12:35:57.227Z,11.50
2018-03-16T12:38:25.460Z,18.08
2018-03-16T12:40:53.678Z,36.22
2018-03-16T12:43:21.926Z,14.17
2018-03-16T12:45:50.145Z,14.43
2018-03-16T12:48:18.409Z,12.05
2018-03-16T12:50:46.622Z,12.48
2018-03-16T12:53:15.604Z,11.77
2018-03-16T12:55:43.819Z,11.65
2018-03-16T12:58:12.063Z,10.65
2018-03-16T13:00:41.054Z,10.20
2018-03-16T13:03:09.327Z,9.65
2018-03-16T13:05:37.550Z,14.18
2018-03-16T13:08:05.774Z,11.82
2018-03-16T13:10:33.987Z,10.15
2018-03-16T13:13:02.224Z,10.85
2018-03-16T13:15:30.454Z,16.58
2018-03-16T13:17:58.700Z,10.40
2018-03-16T13:20:27.682Z,53.67
2018-03-16T13:22:56.706Z,75.78
2018-03-16T13:25:24.928Z,10.63
2018-03-16T13:27:53.189Z,10.35
2018-03-16T13:30:21.445Z,11.23
2018-03-16T13:32:49.691Z,8.60
2018-03-16T13:35:18.674Z,11.73
2018-03-16T13:37:47.659Z,8.30
2018-03-16T13:40:16.003Z,8.93
2018-03-16T13:42:44.240Z,8.82
2018-03-16T13:45:13.237Z,8.98
2018-03-16T13:47:42.244Z,9.48
2018-03-16T13:50:10.508Z,10.40
2018-03-16T13:52:38.729Z,9.43
2018-03-16T13:55:06.979Z,10.55
2018-03-16T13:57:35.221Z,7.95
2018-03-16T14:00:04.240Z,9.52
2018-03-16T14:02:32.517Z,9.23
2018-03-16T14:05:00.690Z,8.35
2018-03-16T14:07:28.936Z,8.70
2018-03-16T14:09:57.951Z,8.85
2018-03-16T14:12:26.164Z,9.75
2018-03-16T14:14:54.422Z,8.73
2018-03-16T14:17:22.631Z,8.87
2018-03-16T14:19:50.863Z,9.20
2018-03-16T14:22:19.119Z,8.57
2018-03-16T14:24:47.406Z,9.30
2018-03-16T14:27:16.386Z,9.13
2018-03-16T14:29:45.382Z,9.95
2018-03-16T14:32:14.459Z,10.43
2018-03-16T14:34:42.635Z,9.70
2018-03-16T14:37:10.880Z,9.13
2018-03-16T14:39:39.188Z,8.23
2018-03-16T14:42:07.389Z,10.15
2018-03-16T14:44:36.365Z,9.43
2018-03-16T14:47:04.615Z,10.25
2018-03-16T14:49:32.894Z,9.98
2018-03-16T14:52:01.061Z,9.18
2018-03-16T14:54:29.294Z,7.87
2018-03-16T14:56:57.502Z,8.80
2018-03-16T14:59:25.731Z,9.20
2018-03-16T15:01:54.720Z,10.88
2018-03-16T15:04:23.714Z,9.10
2018-03-16T15:06:52.694Z,7.65
2018-03-16T15:09:21.703Z,8.50
2018-03-16T15:11:50.701Z,8.37
2018-03-16T15:14:19.719Z,8.20
2018-03-16T15:16:47.924Z,7.80
2018-03-16T15:19:16.162Z,7.72
2018-03-16T15:21:44.452Z,7.70
2018-03-16T15:24:12.626Z,7.43
2018-03-16T15:26:40.828Z,8.23
2018-03-16T15:29:09.068Z,7.50
2018-03-16T15:31:37.290Z,8.68
2018-03-16T15:34:05.508Z,8.30
2018-03-16T15:36:33.756Z,6.60
2018-03-16T15:39:01.990Z,7.90
2018-03-16T15:41:30.228Z,10.25
2018-03-16T15:43:58.443Z,6.83
2018-03-16T15:46:26.677Z,6.87
2018-03-16T15:48:54.936Z,7.43
2018-03-16T15:51:23.949Z,8.70
2018-03-16T15:53:52.948Z,5.67
2018-03-16T15:56:21.179Z,6.60
2018-03-16T15:58:49.508Z,6.68
2018-03-16T16:01:17.728Z,7.93
2018-03-16T16:03:45.982Z,6.28
2018-03-16T16:06:14.190Z,6.57
2018-03-16T16:08:42.426Z,7.62
2018-03-16T16:11:10.703Z,7.87
2018-03-16T16:13:39.677Z,6.05
2018-03-16T16:16:07.895Z,7.10
2018-03-16T16:18:36.142Z,7.45
2018-03-16T16:21:04.379Z,10.30
2018-03-16T16:23:32.624Z,8.18
2018-03-16T16:26:00.841Z,7.03
2018-03-16T16:28:29.102Z,8.15
2018-03-16T16:30:57.467Z,9.27
2018-03-16T16:33:25.707Z,8.07
2018-03-16T16:35:53.936Z,6.50
2018-03-16T16:38:22.918Z,6.15
2018-03-16T16:40:51.151Z,7.03
2018-03-16T16:43:19.391Z,8.32
2018-03-16T16:45:48.393Z,7.32
2018-03-16T16:48:16.607Z,7.10
2018-03-16T16:50:44.878Z,6.12
2018-03-16T16:53:13.229Z,6.70
2018-03-16T16:55:41.475Z,7.90
2018-03-16T16:58:09.734Z,10.10
2018-03-16T17:00:37.911Z,8.85
2018-03-16T17:03:06.150Z,9.43
2018-03-16T17:05:34.371Z,6.37
2018-03-16T17:08:02.609Z,11.93
2018-03-16T17:10:30.844Z,5.50
2018-03-16T17:12:59.075Z,8.50
2018-03-16T17:15:27.320Z,15.57
2018-03-16T17:17:55.534Z,8.30
2018-03-16T17:20:23.767Z,6.78
2018-03-16T17:22:52.161Z,5.43
2018-03-16T17:25:20.422Z,5.30
2018-03-16T17:27:48.665Z,5.93
2018-03-16T17:30:16.884Z,6.65
2018-03-16T17:32:45.122Z,7.03
2018-03-16T17:35:13.429Z,7.43
2018-03-16T17:37:41.662Z,7.15
2018-03-16T17:40:09.890Z,5.90
2018-03-16T17:42:38.152Z,5.10
2018-03-16T17:45:06.366Z,5.45
2018-03-16T17:47:34.602Z,5.37
2018-03-16T17:50:02.870Z,5.25
2018-03-16T17:52:31.942Z,8.95
2018-03-16T17:55:00.140Z,7.60
2018-03-16T17:57:28.365Z,5.28
2018-03-16T17:59:56.604Z,5.30
2018-03-16T18:02:24.822Z,6.03
2018-03-16T18:04:53.054Z,6.22
2018-03-16T18:07:21.269Z,5.45
2018-03-16T18:09:49.579Z,5.00
2018-03-16T18:12:17.796Z,5.40
2018-03-16T18:14:46.017Z,6.75
2018-03-16T18:17:14.258Z,6.47
2018-03-16T18:19:42.458Z,6.37
2018-03-16T18:22:10.675Z,6.20
2018-03-16T18:24:38.931Z,5.60
2018-03-16T18:27:07.911Z,6.47
2018-03-16T18:29:36.141Z,5.50
2018-03-16T18:32:04.346Z,4.82
2018-03-16T18:34:32.672Z,5.60
2018-03-16T18:37:00.904Z,6.20
2018-03-16T18:39:29.196Z,5.25
2018-03-16T18:41:57.390Z,5.77
2018-03-16T18:44:26.403Z,4.85
2018-03-16T18:46:54.657Z,10.20
2018-03-16T18:49:22.854Z,6.12
2018-03-16T18:51:51.076Z,12.57
2018-03-16T18:54:19.404Z,12.25
2018-03-16T18:56:47.666Z,10.63
2018-03-16T18:59:16.655Z,5.63
2018-03-16T19:01:45.670Z,5.28
2018-03-16T19:04:13.906Z,5.15
2018-03-16T19:06:42.139Z,6.12
2018-03-16T19:09:10.385Z,6.85
2018-03-16T19:11:38.598Z,6.40
2018-03-16T19:14:06.805Z,6.05
2018-03-16T19:16:35.062Z,6.40
2018-03-16T19:19:03.302Z,4.60
2018-03-16T19:21:31.530Z,5.47
2018-03-16T19:23:59.786Z,5.95
2018-03-16T19:26:28.038Z,5.07
2018-03-16T19:28:56.284Z,5.03
2018-03-16T19:31:25.260Z,4.97
2018-03-16T19:33:53.575Z,5.47
2018-03-16T19:36:21.778Z,5.55
2018-03-16T19:38:50.005Z,5.97
2018-03-16T19:41:19.002Z,5.85
2018-03-16T19:43:48.012Z,4.55
2018-03-16T19:46:16.285Z,5.65
2018-03-16T19:48:44.570Z,5.73
2018-03-16T19:51:12.718Z,4.95
2018-03-16T19:53:41.796Z,5.20
2018-03-16T19:56:09.999Z,5.12
2018-03-16T19:58:38.226Z,5.53
2018-03-16T20:01:06.463Z,5.82
2018-03-16T20:03:37.803Z,7.85
2018-03-16T20:06:06.786Z,5.32
2018-03-16T20:08:35.791Z,5.37
2018-03-16T20:11:04.785Z,5.50
2018-03-16T20:13:33.792Z,5.37
2018-03-16T20:16:02.023Z,4.12
2018-03-16T20:18:30.267Z,6.03
2018-03-16T20:20:58.496Z,4.95
2018-03-16T20:23:27.503Z,4.93
2018-03-16T20:25:56.496Z,6.43
2018-03-16T20:28:24.746Z,4.85
2018-03-16T20:30:52.952Z,4.53
2018-03-16T20:33:21.196Z,4.80
2018-03-16T20:35:49.438Z,5.80
2018-03-16T20:38:17.768Z,4.18
2018-03-16T20:40:45.950Z,4.10
2018-03-16T20:43:14.968Z,4.60
2018-03-16T20:45:43.206Z,4.70
2018-03-16T20:48:12.202Z,4.40
2018-03-16T20:50:41.317Z,4.20
2018-03-16T20:53:09.527Z,5.22
2018-03-16T20:55:37.767Z,3.58
2018-03-16T20:58:05.998Z,6.45
2018-03-16T21:00:34.248Z,6.62
2018-03-16T21:03:02.585Z,3.60
2018-03-16T21:05:31.570Z,3.80
2018-03-16T21:08:00.554Z,5.00
2018-03-16T21:10:29.602Z,5.53
2018-03-16T21:12:57.826Z,4.80
2018-03-16T21:15:26.156Z,3.80
2018-03-16T21:17:54.407Z,4.15
2018-03-16T21:20:22.650Z,4.12
2018-03-16T21:22:50.957Z,3.72
2018-03-16T21:25:19.185Z,4.35
2018-03-16T21:27:47.452Z,3.97
2018-03-16T21:30:15.712Z,3.80
2018-03-16T21:32:43.941Z,4.82
2018-03-16T21:35:12.935Z,3.97
2018-03-16T21:37:41.957Z,4.62
2018-03-16T21:40:10.162Z,4.95
2018-03-16T21:42:38.405Z,5.20
2018-03-16T21:45:06.695Z,4.15
2018-03-16T21:47:34.921Z,4.28
2018-03-16T21:50:03.142Z,4.57
2018-03-16T21:52:31.376Z,6.00
2018-03-16T21:54:59.646Z,3.87
2018-03-16T21:57:27.871Z,4.43
2018-03-16T21:59:56.081Z,3.50
2018-03-16T22:02:24.307Z,5.00
2018-03-16T22:04:52.535Z,4.63
2018-03-16T22:07:20.824Z,4.18
2018-03-16T22:09:49.051Z,5.03
2018-03-16T22:12:17.284Z,4.85
2018-03-16T22:14:45.514Z,4.35
2018-03-16T22:17:13.753Z,4.25
2018-03-16T22:19:42.746Z,5.28
2018-03-16T22:22:11.722Z,5.12
2018-03-16T22:24:40.763Z,4.55
2018-03-16T22:27:09.006Z,4.93
2018-03-16T22:29:38.009Z,4.70
2018-03-16T22:32:06.226Z,4.70
2018-03-16T22:34:34.477Z,4.68
2018-03-16T22:37:02.690Z,4.85
2018-03-16T22:39:30.898Z,6.57
2018-03-16T22:41:59.914Z,4.87
2018-03-16T22:44:28.129Z,5.32
2018-03-16T22:46:56.360Z,7.15
2018-03-16T22:49:24.565Z,7.43
2018-03-16T22:51:52.803Z,4.93
2018-03-16T22:54:21.028Z,5.22
2018-03-16T22:56:49.275Z,5.28
2018-03-16T22:59:17.531Z,4.70
2018-03-16T23:01:45.770Z,4.10
2018-03-16T23:04:13.973Z,6.20
2018-03-16T23:06:42.985Z,5.25
2018-03-16T23:09:11.193Z,4.00
2018-03-16T23:11:39.427Z,4.60
2018-03-16T23:14:07.650Z,4.65
2018-03-16T23:16:35.892Z,4.57
2018-03-16T23:19:04.114Z,3.75
2018-03-16T23:21:32.325Z,7.40
2018-03-16T23:24:01.331Z,3.87
2018-03-16T23:26:29.562Z,5.07
2018-03-16T23:28:59.315Z,7.40
2018-03-16T23:31:27.535Z,5.40
2018-03-16T23:33:55.779Z,5.37
2018-03-16T23:36:24.004Z,4.30
2018-03-16T23:38:52.245Z,4.22
2018-03-16T23:41:20.454Z,5.20
2018-03-16T23:43:50.196Z,4.75
2018-03-16T23:46:18.413Z,4.28
2018-03-16T23:48:46.651Z,4.53
2018-03-16T23:51:14.944Z,4.20
2018-03-16T23:53:43.158Z,5.35
2018-03-16T23:56:11.374Z,5.25
2018-03-16T23:58:40.811Z,4.20
